Time;durP1;ratioP1;P1;durP2;ratioP2;P2;SDS_P1;SDS_P2;PMS_P1;PMS_P2;Temp;Humidity;BMP_temperature;BMP_pressure;BME280_temperature;BME280_humidity;BME280_pressure;Samples;Min_cycle;Max_cycle;Signal;HPM_P1;HPM_P2
2022/04/11 00:00:09;;;;;;;;;5.00;5.00;17.80;99.90;;;;;;5078993;28;10418;-57
2022/04/11 00:02:41;;;;;;;;;3.75;3.25;17.80;99.90;;;;;;5087385;28;10174;-58
2022/04/11 00:05:12;;;;;;;;;5.75;5.75;17.70;99.90;;;;;;5083397;28;10182;-57
2022/04/11 00:07:43;;;;;;;;;6.25;6.25;17.70;99.90;;;;;;5081932;28;10280;-58
2022/04/11 00:10:14;;;;;;;;;12.00;10.25;17.60;99.90;;;;;;5078056;28;11437;-58
2022/04/11 00:12:44;;;;;;;;;22.25;22.25;17.60;99.90;;;;;;5089828;28;11071;-58
2022/04/11 00:15:18;;;;;;;;;26.00;24.00;17.50;99.90;;;;;;5075923;28;11184;-58
2022/04/11 00:17:48;;;;;;;;;17.75;17.75;17.50;99.90;;;;;;5080034;28;11501;-57
2022/04/11 00:20:19;;;;;;;;;12.25;10.50;17.40;99.90;;;;;;5080251;28;11485;-55
2022/04/11 00:22:49;;;;;;;;;6.50;6.50;17.50;99.90;;;;;;5081253;28;11487;-56
2022/04/11 00:25:19;;;;;;;;;4.00;4.00;17.50;99.90;;;;;;5089031;28;11694;-56
2022/04/11 00:27:52;;;;;;;;;8.00;7.00;17.40;99.90;;;;;;5078695;28;10444;-56
2022/04/11 00:30:23;;;;;;;;;7.00;5.50;17.40;99.90;;;;;;5086397;28;10372;-56
2022/04/11 00:32:54;;;;;;;;;6.25;6.25;17.30;99.90;;;;;;5082299;28;10533;-57
2022/04/11 00:35:25;;;;;;;;;3.00;3.00;17.20;99.90;;;;;;5086270;28;10527;-57
2022/04/11 00:37:57;;;;;;;;;4.25;4.25;17.20;99.90;;;;;;5066346;28;10336;-57
2022/04/11 00:40:28;;;;;;;;;4.75;4.75;17.20;99.90;;;;;;5076452;28;10906;-57
2022/04/11 00:42:58;;;;;;;;;4.00;4.00;17.10;99.90;;;;;;5094709;28;10754;-57
2022/04/11 00:45:28;;;;;;;;;6.25;6.25;17.00;99.90;;;;;;5083960;28;10868;-57
2022/04/11 00:47:57;;;;;;;;;9.25;9.25;17.00;99.90;;;;;;5080964;28;11422;-57
2022/04/11 00:50:30;;;;;;;;;10.25;10.25;17.00;99.90;;;;;;5085651;28;12550;-57
2022/04/11 00:53:01;;;;;;;;;16.50;16.50;16.90;99.90;;;;;;5075412;28;11466;-60
2022/04/11 00:55:32;;;;;;;;;15.75;15.75;16.90;99.90;;;;;;5080478;28;11503;-56
2022/04/11 00:58:02;;;;;;;;;22.25;21.25;16.90;99.90;;;;;;5086345;28;11537;-57
2022/04/11 01:00:34;;;;;;;;;20.50;20.50;16.90;99.90;;;;;;5089302;28;11543;-57
2022/04/11 01:03:05;;;;;;;;;27.75;27.75;16.90;99.90;;;;;;5081595;28;12302;-57
2022/04/11 01:05:36;;;;;;;;;25.25;25.25;16.80;99.90;;;;;;5092539;28;11532;-57
2022/04/11 01:08:10;;;;;;;;;21.00;21.00;16.80;99.90;;;;;;5084056;28;11520;-57
2022/04/11 01:10:41;;;;;;;;;16.00;16.00;16.80;99.90;;;;;;5083337;28;11526;-57
2022/04/11 01:13:12;;;;;;;;;15.00;15.00;16.70;99.90;;;;;;5065820;28;11543;-59
2022/04/11 01:16:00;;;;;;;;;20.00;17.00;16.70;99.90;;;;;;5083635;28;11562;-58
2022/04/11 01:18:35;;;;;;;;;10.25;8.50;16.70;99.90;;;;;;5082654;28;11696;-57
2022/04/11 01:21:09;;;;;;;;;9.50;9.50;16.60;99.90;;;;;;5073872;28;12424;-57
2022/04/11 01:23:39;;;;;;;;;7.75;7.50;16.60;99.90;;;;;;5088290;28;11473;-58
2022/04/11 01:26:10;;;;;;;;;5.00;5.00;16.50;99.90;;;;;;5092779;28;11452;-58
2022/04/11 01:28:42;;;;;;;;;7.00;7.00;16.50;99.90;;;;;;5099348;28;11446;-57
2022/04/11 01:31:11;;;;;;;;;7.00;5.75;16.40;99.90;;;;;;5059461;28;11240;-57
2022/04/11 01:33:42;;;;;;;;;3.75;3.75;16.30;99.90;;;;;;5086505;28;11010;-57
2022/04/11 01:36:13;;;;;;;;;7.00;4.00;16.40;99.90;;;;;;5080830;28;10820;-57
2022/04/11 01:38:45;;;;;;;;;3.50;3.50;16.40;99.90;;;;;;5079248;28;10745;-57
2022/04/11 01:41:15;;;;;;;;;5.25;5.25;16.40;99.90;;;;;;5089763;28;10753;-56
2022/04/11 01:43:46;;;;;;;;;3.00;3.00;16.40;99.90;;;;;;5083999;28;11037;-58
2022/04/11 01:46:18;;;;;;;;;4.00;3.00;16.30;99.90;;;;;;5059573;28;10929;-58
2022/04/11 01:48:51;;;;;;;;;6.25;4.25;16.20;99.90;;;;;;5078930;28;11059;-58
2022/04/11 01:51:22;;;;;;;;;3.00;3.00;16.20;99.90;;;;;;5070781;28;10974;-57
2022/04/11 01:53:54;;;;;;;;;1.75;1.75;16.20;99.90;;;;;;5073175;28;11782;-56
2022/04/11 01:56:25;;;;;;;;;4.50;4.00;16.10;99.90;;;;;;5064525;28;10927;-57
2022/04/11 01:58:55;;;;;;;;;7.50;4.50;16.10;99.90;;;;;;5074018;28;11149;-58
2022/04/11 02:01:27;;;;;;;;;6.00;5.00;16.10;99.90;;;;;;5071341;28;11206;-58
2022/04/11 02:03:58;;;;;;;;;5.00;5.00;16.00;99.90;;;;;;5068114;28;11013;-57
2022/04/11 02:06:30;;;;;;;;;8.00;5.00;16.00;99.90;;;;;;5068597;28;10989;-57
2022/04/11 02:09:01;;;;;;;;;5.00;5.00;16.00;99.90;;;;;;5081827;28;10751;-57
2022/04/11 02:11:33;;;;;;;;;6.00;5.00;15.90;99.90;;;;;;5074478;28;11107;-58
2022/04/11 02:14:03;;;;;;;;;3.00;3.00;15.90;99.90;;;;;;5070618;28;11370;-57
2022/04/11 02:16:34;;;;;;;;;6.00;4.75;15.90;99.90;;;;;;5087625;28;11023;-63
2022/04/11 02:19:05;;;;;;;;;6.25;5.00;15.90;99.90;;;;;;5072704;28;11191;-63
2022/04/11 02:21:36;;;;;;;;;5.00;4.25;15.80;99.90;;;;;;5075367;28;11259;-63
2022/04/11 02:24:07;;;;;;;;;3.25;3.00;15.80;99.90;;;;;;5083481;28;11340;-62
2022/04/11 02:26:37;;;;;;;;;4.50;3.00;15.80;99.90;;;;;;5088473;28;11441;-66
2022/04/11 02:29:08;;;;;;;;;7.75;4.75;15.80;99.90;;;;;;5079847;28;11822;-58
2022/04/11 02:31:39;;;;;;;;;3.25;3.25;15.80;99.90;;;;;;5076147;28;11512;-63
2022/04/11 02:34:12;;;;;;;;;4.50;4.50;15.70;99.90;;;;;;5074099;27;11212;-57
2022/04/11 02:36:42;;;;;;;;;4.00;4.00;15.60;99.90;;;;;;5080730;28;11158;-70
2022/04/11 02:39:14;;;;;;;;;4.75;4.00;15.60;99.90;;;;;;5076205;28;11116;-58
2022/04/11 02:41:44;;;;;;;;;2.00;2.00;15.60;99.90;;;;;;5081525;28;11433;-59
2022/04/11 02:44:16;;;;;;;;;5.50;5.50;15.40;99.90;;;;;;5078001;28;11134;-59
2022/04/11 02:46:47;;;;;;;;;6.50;3.75;15.40;99.90;;;;;;5073250;28;12376;-57
2022/04/11 02:49:18;;;;;;;;;1.25;1.25;15.40;99.90;;;;;;5087843;28;11426;-58
2022/04/11 02:52:09;;;;;;;;;5.75;4.00;15.40;99.90;;;;;;5078916;28;11063;-57
2022/04/11 02:54:42;;;;;;;;;2.50;2.50;15.40;99.90;;;;;;5077595;28;11461;-58
2022/04/11 02:57:13;;;;;;;;;2.25;2.25;15.40;99.90;;;;;;5082234;27;10980;-57
2022/04/11 02:59:44;;;;;;;;;3.00;3.00;15.40;99.90;;;;;;5069030;28;11494;-60
2022/04/11 03:02:15;;;;;;;;;5.00;5.00;15.30;99.90;;;;;;5060940;28;12201;-67
2022/04/11 03:04:47;;;;;;;;;4.00;4.00;15.20;99.90;;;;;;5079940;28;11577;-58
2022/04/11 03:07:22;;;;;;;;;4.75;4.00;15.20;99.90;;;;;;5064550;28;11540;-64
2022/04/11 03:09:52;;;;;;;;;4.00;4.00;15.20;99.90;;;;;;5073175;28;11461;-61
2022/04/11 03:12:27;;;;;;;;;4.25;3.75;15.30;99.90;;;;;;5080309;28;11569;-57
2022/04/11 03:14:57;;;;;;;;;3.00;3.00;15.30;99.90;;;;;;5079960;28;12261;-58
2022/04/11 03:17:29;;;;;;;;;5.00;3.00;15.30;99.90;;;;;;5076901;27;11964;-59
2022/04/11 03:20:00;;;;;;;;;4.25;4.25;15.20;99.90;;;;;;5069860;28;11478;-58
2022/04/11 03:22:35;;;;;;;;;3.25;3.25;15.20;99.90;;;;;;5068431;28;11499;-58
2022/04/11 03:25:08;;;;;;;;;5.00;5.00;15.20;99.90;;;;;;5067318;28;11392;-59
2022/04/11 03:27:41;;;;;;;;;5.50;5.50;15.20;99.90;;;;;;5068758;28;11439;-59
2022/04/11 03:30:12;;;;;;;;;2.00;2.00;15.20;99.90;;;;;;5064791;28;11175;-59
2022/04/11 03:32:45;;;;;;;;;4.00;4.00;15.20;99.90;;;;;;5074163;28;11432;-59
2022/04/11 03:35:17;;;;;;;;;5.00;3.75;15.20;99.90;;;;;;5077149;28;11477;-58
2022/04/11 03:37:47;;;;;;;;;4.00;3.50;15.00;99.90;;;;;;5064150;28;11503;-62
2022/04/11 03:40:23;;;;;;;;;5.25;3.50;15.10;99.90;;;;;;5081422;28;11401;-59
2022/04/11 03:42:56;;;;;;;;;3.00;3.00;15.00;99.90;;;;;;5083056;28;11594;-59
2022/04/11 03:45:28;;;;;;;;;3.50;3.50;15.00;99.90;;;;;;5095958;27;11626;-57
2022/04/11 03:47:59;;;;;;;;;4.75;4.75;14.80;99.90;;;;;;5079084;28;11653;-57
2022/04/11 03:50:33;;;;;;;;;4.00;4.00;14.80;99.90;;;;;;5077500;28;12216;-59
2022/04/11 03:53:04;;;;;;;;;3.00;3.00;14.80;99.90;;;;;;5078397;28;11434;-59
2022/04/11 03:55:38;;;;;;;;;2.75;2.75;14.90;99.90;;;;;;5078687;28;11463;-57
2022/04/11 03:58:11;;;;;;;;;4.25;4.25;14.70;99.90;;;;;;5074603;28;11594;-59
2022/04/11 04:00:43;;;;;;;;;3.75;3.75;14.80;99.90;;;;;;5075438;28;11423;-59
2022/04/11 04:03:21;;;;;;;;;2.50;2.50;14.60;99.90;;;;;;5056741;28;11463;-59
2022/04/11 04:06:01;;;;;;;;;2.00;2.00;14.60;99.90;;;;;;5070757;28;11420;-59
2022/04/11 04:08:37;;;;;;;;;4.25;3.50;14.70;99.90;;;;;;5076817;28;11583;-59
2022/04/11 04:11:27;;;;;;;;;4.25;3.75;14.60;99.90;;;;;;5069182;28;11470;-59
2022/04/11 04:14:28;;;;;;;;;2.00;2.00;14.70;99.90;;;;;;5071399;28;11424;-64
2022/04/11 04:16:58;;;;;;;;;4.00;3.00;14.70;99.90;;;;;;5069474;28;11275;-64
2022/04/11 04:19:40;;;;;;;;;4.25;4.25;14.60;99.90;;;;;;5068211;28;11193;-59
2022/04/11 04:22:17;;;;;;;;;2.25;2.25;14.70;99.90;;;;;;5079960;28;11434;-60
2022/04/11 04:24:48;;;;;;;;;3.75;3.75;14.60;99.90;;;;;;5072923;28;11450;-58
2022/04/11 04:27:18;;;;;;;;;3.75;3.50;14.70;99.90;;;;;;5081140;28;11452;-58
2022/04/11 04:29:48;;;;;;;;;4.00;2.50;14.60;99.90;;;;;;5076517;28;12176;-59
2022/04/11 04:32:22;;;;;;;;;5.75;3.00;14.60;99.90;;;;;;5082968;28;11417;-59
2022/04/11 04:34:53;;;;;;;;;3.00;3.00;14.60;99.90;;;;;;5080105;28;11590;-59
2022/04/11 04:37:27;;;;;;;;;3.75;3.75;14.60;99.90;;;;;;5068937;28;11476;-64
2022/04/11 04:39:57;;;;;;;;;3.50;3.50;14.50;99.90;;;;;;5083621;28;11497;-59
2022/04/11 04:42:28;;;;;;;;;4.25;3.25;14.40;99.90;;;;;;5086510;28;11539;-59
2022/04/11 04:45:07;;;;;;;;;3.00;3.00;14.40;99.90;;;;;;5078996;28;11423;-59
2022/04/11 04:47:57;;;;;;;;;5.00;5.00;14.30;99.90;;;;;;5083198;27;11679;-59
2022/04/11 04:50:29;;;;;;;;;4.00;4.00;14.30;99.90;;;;;;5075352;28;11444;-58
2022/04/11 04:53:01;;;;;;;;;2.75;2.75;14.30;99.90;;;;;;5085717;28;11404;-59
2022/04/11 04:55:32;;;;;;;;;4.00;4.00;14.30;99.90;;;;;;5081847;28;11595;-59
2022/04/11 04:58:04;;;;;;;;;3.25;3.25;14.30;99.90;;;;;;5083985;28;11404;-59
2022/04/11 05:00:35;;;;;;;;;2.75;2.75;14.30;99.90;;;;;;5078651;28;11494;-59
2022/04/11 05:03:09;;;;;;;;;2.00;2.00;14.20;99.90;;;;;;5083364;28;11439;-59
2022/04/11 05:05:39;;;;;;;;;3.00;3.00;14.20;99.90;;;;;;5076232;28;11466;-59
2022/04/11 05:08:12;;;;;;;;;2.75;2.75;14.20;99.90;;;;;;5093216;27;11159;-59
2022/04/11 05:10:44;;;;;;;;;5.00;3.00;14.10;99.90;;;;;;5094270;28;11453;-59
2022/04/11 05:13:15;;;;;;;;;2.75;2.75;14.10;99.90;;;;;;5082372;28;11482;-58
2022/04/11 05:15:47;;;;;;;;;4.50;4.25;14.10;99.90;;;;;;5081451;28;11451;-59
2022/04/11 05:18:25;;;;;;;;;4.00;2.00;14.10;99.90;;;;;;5084901;28;11411;-59
2022/04/11 05:20:57;;;;;;;;;3.25;3.25;14.10;99.90;;;;;;5081337;28;11438;-59
2022/04/11 05:23:33;;;;;;;;;3.00;3.00;14.10;99.90;;;;;;5089832;28;11545;-59
2022/04/11 05:26:05;;;;;;;;;3.00;3.00;14.00;99.90;;;;;;5085584;28;11431;-59
2022/04/11 05:28:37;;;;;;;;;4.25;3.75;14.10;99.90;;;;;;5081672;28;11474;-59
2022/04/11 05:31:09;;;;;;;;;3.75;3.75;14.10;99.90;;;;;;5060542;28;11426;-60
2022/04/11 05:33:42;;;;;;;;;3.50;2.00;14.10;99.90;;;;;;5080272;28;11437;-58
2022/04/11 05:36:17;;;;;;;;;2.00;2.00;14.10;99.90;;;;;;5074849;28;11440;-59
2022/04/11 05:38:49;;;;;;;;;2.00;2.00;14.10;99.90;;;;;;5078280;28;11432;-59
2022/04/11 05:41:19;;;;;;;;;2.00;2.00;14.00;99.90;;;;;;5090028;28;11457;-59
2022/04/11 05:43:53;;;;;;;;;3.50;3.50;14.00;99.90;;;;;;5081640;28;11582;-59
2022/04/11 05:46:30;;;;;;;;;3.00;2.00;14.00;99.90;;;;;;5077006;28;11570;-59
2022/04/11 05:49:11;;;;;;;;;3.00;3.00;14.00;99.90;;;;;;5077016;28;11462;-59
2022/04/11 05:51:41;;;;;;;;;2.25;2.25;14.00;99.90;;;;;;5086897;28;11435;-59
2022/04/11 05:54:12;;;;;;;;;4.00;3.25;13.90;99.90;;;;;;5090009;28;11426;-59
2022/04/11 05:56:43;;;;;;;;;2.75;2.75;13.90;99.90;;;;;;5090133;28;12136;-59
2022/04/11 05:59:16;;;;;;;;;4.00;2.00;13.90;99.90;;;;;;5080885;28;11512;-59
2022/04/11 06:01:49;;;;;;;;;5.25;3.75;13.90;99.90;;;;;;5083636;28;11533;-59
2022/04/11 06:04:19;;;;;;;;;5.00;3.00;13.90;99.90;;;;;;5074907;28;11445;-59
2022/04/11 06:06:49;;;;;;;;;2.25;2.25;13.90;99.90;;;;;;5065221;28;12132;-59
2022/04/11 06:09:20;;;;;;;;;2.75;2.75;13.80;99.90;;;;;;5079170;28;11447;-59
2022/04/11 06:11:52;;;;;;;;;3.25;2.75;13.80;99.90;;;;;;5080471;28;11467;-59
2022/04/11 06:14:24;;;;;;;;;3.00;3.00;13.80;99.90;;;;;;5086158;28;11450;-59
2022/04/11 06:16:54;;;;;;;;;2.50;2.50;13.70;99.90;;;;;;5082751;28;11406;-58
2022/04/11 06:19:24;;;;;;;;;3.00;3.00;13.70;99.90;;;;;;5075560;28;11452;-59
2022/04/11 06:21:55;;;;;;;;;2.50;2.50;13.70;99.90;;;;;;5080054;28;11453;-59
2022/04/11 06:24:24;;;;;;;;;3.50;3.50;13.60;99.90;;;;;;5081288;28;11583;-59
2022/04/11 06:26:56;;;;;;;;;5.50;4.25;13.60;99.90;;;;;;5086578;28;11478;-59
2022/04/11 06:29:27;;;;;;;;;3.75;3.75;13.60;99.90;;;;;;5083218;28;11444;-59
2022/04/11 06:32:04;;;;;;;;;4.25;2.00;13.60;99.90;;;;;;5082488;28;11466;-59
2022/04/11 06:34:38;;;;;;;;;2.50;2.50;13.50;99.90;;;;;;5062984;28;11599;-59
2022/04/11 06:37:08;;;;;;;;;2.75;2.75;13.50;99.90;;;;;;5089240;27;11499;-59
2022/04/11 06:39:41;;;;;;;;;2.00;2.00;13.50;99.90;;;;;;5043948;27;11680;-58
2022/04/11 06:42:11;;;;;;;;;3.50;3.50;13.50;99.90;;;;;;5089200;28;11450;-59
2022/04/11 06:44:45;;;;;;;;;3.75;3.75;13.50;99.90;;;;;;5076172;28;11440;-61
2022/04/11 06:47:21;;;;;;;;;4.00;4.00;13.40;99.90;;;;;;5081951;28;11568;-59
2022/04/11 06:49:51;;;;;;;;;2.50;2.50;13.40;99.90;;;;;;5082486;28;11593;-59
2022/04/11 06:52:23;;;;;;;;;3.75;2.00;13.30;99.90;;;;;;5087522;28;12198;-58
2022/04/11 06:54:53;;;;;;;;;4.00;4.00;13.30;99.90;;;;;;5077175;28;11448;-58
2022/04/11 06:57:24;;;;;;;;;3.50;2.00;13.30;99.90;;;;;;5084511;28;11446;-58
2022/04/11 06:59:55;;;;;;;;;2.00;2.00;13.20;99.90;;;;;;5083857;28;11618;-58
2022/04/11 07:02:25;;;;;;;;;3.75;3.75;13.30;99.90;;;;;;5082304;28;12270;-57
2022/04/11 07:04:56;;;;;;;;;4.25;2.75;13.20;99.90;;;;;;5078965;28;11420;-58
2022/04/11 07:07:28;;;;;;;;;4.00;4.00;13.10;99.90;;;;;;5085471;28;11584;-58
2022/04/11 07:10:00;;;;;;;;;3.00;3.00;13.00;99.90;;;;;;5087260;28;11455;-58
2022/04/11 07:12:32;;;;;;;;;4.25;4.25;13.00;99.90;;;;;;5081467;28;11445;-58
2022/04/11 07:15:03;;;;;;;;;4.00;4.00;13.00;99.90;;;;;;5083634;28;11859;-58
2022/04/11 07:17:34;;;;;;;;;3.00;3.00;13.10;99.90;;;;;;5085654;28;11503;-58
2022/04/11 07:20:05;;;;;;;;;3.50;3.00;13.00;99.90;;;;;;5086735;28;11652;-59
2022/04/11 07:22:35;;;;;;;;;4.50;2.75;13.00;99.90;;;;;;5085706;28;11483;-58
2022/04/11 07:25:06;;;;;;;;;3.00;3.00;13.10;99.90;;;;;;5080092;28;12253;-58
2022/04/11 07:27:37;;;;;;;;;5.50;4.00;13.00;99.90;;;;;;5076629;28;11604;-58
2022/04/11 07:30:07;;;;;;;;;3.50;3.50;13.00;99.90;;;;;;5081194;28;11571;-58
2022/04/11 07:32:38;;;;;;;;;2.00;2.00;13.00;99.90;;;;;;5089983;28;11420;-59
2022/04/11 07:35:09;;;;;;;;;2.00;2.00;13.00;99.90;;;;;;5078333;28;11504;-57
2022/04/11 07:37:40;;;;;;;;;3.25;3.00;13.10;99.90;;;;;;5077957;28;11436;-58
2022/04/11 07:40:12;;;;;;;;;3.00;3.00;13.00;99.90;;;;;;5080795;28;11493;-58
2022/04/11 07:42:43;;;;;;;;;6.00;4.00;13.10;99.90;;;;;;5077308;28;12221;-60
2022/04/11 07:45:13;;;;;;;;;2.25;2.25;13.00;99.90;;;;;;5072972;28;11489;-58
2022/04/11 07:47:44;;;;;;;;;2.75;2.75;13.00;99.90;;;;;;5079276;28;11413;-58
2022/04/11 07:50:14;;;;;;;;;3.00;3.00;13.00;99.90;;;;;;5074157;28;11414;-59
2022/04/11 07:52:48;;;;;;;;;1.50;1.50;13.10;99.90;;;;;;5078893;28;11559;-59
2022/04/11 07:55:24;;;;;;;;;2.75;2.75;13.00;99.90;;;;;;5078977;28;11437;-59
2022/04/11 07:57:55;;;;;;;;;2.00;2.00;13.00;99.90;;;;;;5079908;28;11543;-60
2022/04/11 08:00:28;;;;;;;;;3.25;3.00;13.00;99.90;;;;;;5089400;28;11462;-59
2022/04/11 08:03:00;;;;;;;;;3.00;3.00;12.90;99.90;;;;;;5082497;28;12172;-59
2022/04/11 08:05:32;;;;;;;;;2.25;2.25;12.90;99.90;;;;;;5083813;28;11568;-59
2022/04/11 08:08:01;;;;;;;;;1.00;1.00;12.90;99.90;;;;;;5078974;28;11488;-59
2022/04/11 08:10:33;;;;;;;;;4.25;4.00;12.90;99.90;;;;;;5078111;28;11417;-58
2022/04/11 08:13:05;;;;;;;;;2.50;2.50;12.80;99.90;;;;;;5086073;28;11503;-59
2022/04/11 08:15:36;;;;;;;;;2.50;2.50;12.80;99.90;;;;;;5082169;28;11636;-59
2022/04/11 08:18:06;;;;;;;;;5.00;3.00;12.90;99.90;;;;;;5078304;28;11517;-60
2022/04/11 08:20:36;;;;;;;;;2.50;2.50;12.80;99.90;;;;;;5077117;28;12201;-59
2022/04/11 08:23:07;;;;;;;;;3.00;3.00;12.80;99.90;;;;;;5088053;28;11546;-60
2022/04/11 08:25:37;;;;;;;;;5.50;2.00;12.80;99.90;;;;;;5079471;28;11492;-59
2022/04/11 08:28:08;;;;;;;;;3.25;2.75;12.80;99.90;;;;;;5086451;28;11464;-59
2022/04/11 08:30:40;;;;;;;;;1.50;1.50;12.80;99.90;;;;;;5082272;28;11558;-59
2022/04/11 08:33:11;;;;;;;;;1.25;1.25;12.70;99.90;;;;;;5077875;28;11499;-59
2022/04/11 08:35:42;;;;;;;;;3.25;2.25;12.70;99.90;;;;;;5074235;28;11477;-59
2022/04/11 08:38:12;;;;;;;;;1.25;1.25;12.70;99.90;;;;;;5083449;28;11530;-58
2022/04/11 08:40:42;;;;;;;;;1.75;1.75;12.70;99.90;;;;;;5083436;28;11447;-59
2022/04/11 08:43:14;;;;;;;;;2.25;2.25;12.70;99.90;;;;;;5083372;28;11488;-59
2022/04/11 08:45:46;;;;;;;;;2.00;2.00;12.60;99.90;;;;;;5071577;28;11519;-59
2022/04/11 08:48:17;;;;;;;;;1.00;1.00;12.50;99.90;;;;;;5076890;28;11578;-59
2022/04/11 08:50:48;;;;;;;;;4.00;2.25;12.50;99.90;;;;;;5078463;28;11414;-58
2022/04/11 08:53:24;;;;;;;;;2.00;2.00;12.60;99.90;;;;;;5082856;28;12193;-58
2022/04/11 08:55:54;;;;;;;;;3.00;1.00;12.50;99.90;;;;;;5084611;28;11457;-59
2022/04/11 08:58:25;;;;;;;;;1.50;1.50;12.50;99.90;;;;;;5078724;28;11475;-58
2022/04/11 09:00:55;;;;;;;;;1.00;1.00;12.50;99.90;;;;;;5082958;28;11508;-59
2022/04/11 09:03:27;;;;;;;;;2.00;2.00;12.60;99.90;;;;;;5078310;28;11649;-59
2022/04/11 09:06:09;;;;;;;;;0.00;0.00;12.60;99.90;;;;;;5083078;28;11469;-58
2022/04/11 09:08:57;;;;;;;;;1.00;1.00;12.50;99.90;;;;;;5084404;27;11429;-58
2022/04/11 09:11:36;;;;;;;;;1.00;1.00;12.60;99.90;;;;;;5078268;28;11519;-58
2022/04/11 09:14:08;;;;;;;;;2.00;2.00;12.60;99.90;;;;;;5072672;28;11467;-58
2022/04/11 09:16:52;;;;;;;;;1.00;1.00;12.50;99.90;;;;;;5089508;28;11480;-57
2022/04/11 09:19:26;;;;;;;;;1.00;1.00;12.50;99.90;;;;;;5082686;28;11469;-58
2022/04/11 09:22:30;;;;;;;;;4.50;1.00;12.50;99.90;;;;;;5085177;28;11560;-58
2022/04/11 09:25:17;;;;;;;;;1.00;1.00;12.40;99.90;;;;;;5091552;28;11464;-58
2022/04/11 09:27:49;;;;;;;;;2.25;2.00;12.40;99.90;;;;;;5082548;28;11510;-59
2022/04/11 09:30:26;;;;;;;;;2.00;2.00;12.50;99.90;;;;;;5084138;28;11491;-59
2022/04/11 09:33:00;;;;;;;;;1.50;1.50;12.50;99.90;;;;;;5084002;28;11484;-58
2022/04/11 09:35:34;;;;;;;;;0.50;0.00;12.50;99.90;;;;;;5086535;28;11460;-59
2022/04/11 09:38:20;;;;;;;;;2.25;2.25;12.50;99.90;;;;;;5078542;28;11436;-58
2022/04/11 09:40:54;;;;;;;;;1.50;0.00;12.60;99.90;;;;;;5077242;28;11500;-58
2022/04/11 09:43:28;;;;;;;;;1.00;1.00;12.60;99.90;;;;;;5088701;28;11429;-58
2022/04/11 09:46:01;;;;;;;;;1.25;1.25;12.60;99.90;;;;;;5081897;28;11441;-58
2022/04/11 09:48:35;;;;;;;;;4.00;1.50;12.50;99.90;;;;;;5084182;28;11569;-58
2022/04/11 09:51:10;;;;;;;;;1.25;1.00;12.50;99.90;;;;;;5083422;28;12130;-58
2022/04/11 09:53:41;;;;;;;;;1.00;1.00;12.40;99.90;;;;;;5083638;28;11435;-58
2022/04/11 09:56:12;;;;;;;;;1.00;1.00;12.50;99.90;;;;;;5082543;28;11419;-58
2022/04/11 09:58:42;;;;;;;;;1.25;1.25;12.30;99.90;;;;;;5090332;28;11464;-58
2022/04/11 10:01:14;;;;;;;;;0.00;0.00;12.30;99.90;;;;;;5087647;27;11492;-58
2022/04/11 10:03:46;;;;;;;;;1.75;1.75;12.40;99.90;;;;;;5083900;28;11423;-58
2022/04/11 10:06:17;;;;;;;;;2.00;2.00;12.40;99.90;;;;;;5089192;28;11513;-58
2022/04/11 10:08:49;;;;;;;;;0.00;0.00;12.30;99.90;;;;;;5086232;28;11445;-58
2022/04/11 10:11:19;;;;;;;;;1.00;1.00;12.40;99.90;;;;;;5089784;28;11433;-58
2022/04/11 10:13:50;;;;;;;;;1.00;1.00;12.30;99.90;;;;;;5083673;28;11515;-58
2022/04/11 10:16:23;;;;;;;;;2.00;2.00;12.30;99.90;;;;;;5083131;28;11558;-58
2022/04/11 10:19:05;;;;;;;;;1.25;1.00;12.30;99.90;;;;;;5084674;28;11570;-59
2022/04/11 10:21:41;;;;;;;;;1.25;1.25;12.30;99.90;;;;;;5078756;28;11411;-58
2022/04/11 10:24:34;;;;;;;;;1.75;1.75;12.30;99.90;;;;;;5081966;28;11481;-59
2022/04/11 10:27:25;;;;;;;;;0.50;0.50;12.30;99.90;;;;;;5079764;28;11442;-58
2022/04/11 10:29:57;;;;;;;;;2.25;2.25;12.40;99.90;;;;;;5090173;28;12145;-58
2022/04/11 10:32:29;;;;;;;;;1.00;1.00;12.40;99.90;;;;;;5074659;28;11438;-58
2022/04/11 10:35:08;;;;;;;;;1.00;1.00;12.30;99.90;;;;;;5082913;28;11464;-58
2022/04/11 10:37:42;;;;;;;;;1.25;1.00;12.30;99.90;;;;;;5086038;28;11644;-58
2022/04/11 10:40:19;;;;;;;;;4.00;2.25;12.30;99.90;;;;;;5090752;28;11425;-59
2022/04/11 10:43:08;;;;;;;;;2.00;1.25;12.30;99.90;;;;;;5087438;28;11587;-58
2022/04/11 10:45:45;;;;;;;;;0.00;0.00;12.20;99.90;;;;;;5062254;28;11544;-59
2022/04/11 10:48:24;;;;;;;;;2.00;2.00;12.20;99.90;;;;;;5079363;28;11484;-59
2022/04/11 10:50:54;;;;;;;;;5.00;2.00;12.20;99.90;;;;;;5081669;28;11577;-59
2022/04/11 10:53:32;;;;;;;;;2.75;1.00;12.20;99.90;;;;;;5089962;28;11478;-59
2022/04/11 10:56:08;;;;;;;;;1.00;1.00;12.20;99.90;;;;;;5078480;28;11426;-59
2022/04/11 10:58:43;;;;;;;;;2.75;2.75;12.30;99.90;;;;;;5079858;28;12255;-58
2022/04/11 11:01:15;;;;;;;;;2.00;2.00;12.30;99.90;;;;;;5081204;28;12194;-59
2022/04/11 11:04:16;;;;;;;;;1.00;1.00;12.20;99.90;;;;;;5079692;28;11707;-58
2022/04/11 11:06:47;;;;;;;;;3.00;1.75;12.20;99.90;;;;;;5079920;28;11511;-58
2022/04/11 11:09:19;;;;;;;;;1.00;1.00;12.20;99.90;;;;;;5080496;28;11488;-58
2022/04/11 11:11:50;;;;;;;;;2.50;2.50;12.20;99.90;;;;;;5085729;28;11622;-57
2022/04/11 11:14:42;;;;;;;;;1.00;1.00;12.20;99.90;;;;;;5083616;28;11502;-57
2022/04/11 11:17:12;;;;;;;;;2.00;2.00;12.20;99.90;;;;;;5089088;28;11598;-58
2022/04/11 11:20:07;;;;;;;;;4.50;2.50;12.20;99.90;;;;;;5078531;28;11499;-58
2022/04/11 11:23:15;;;;;;;;;1.00;1.00;12.30;99.90;;;;;;5085113;28;11470;-58
2022/04/11 11:25:48;;;;;;;;;1.25;1.25;12.30;99.90;;;;;;5081247;28;11732;-58
2022/04/11 11:28:20;;;;;;;;;2.00;2.00;12.20;99.90;;;;;;5082943;28;12232;-58
2022/04/11 11:30:50;;;;;;;;;2.00;2.00;12.20;99.90;;;;;;5074766;28;11469;-58
2022/04/11 11:33:21;;;;;;;;;2.00;2.00;12.20;99.90;;;;;;5081874;28;11477;-58
2022/04/11 11:35:54;;;;;;;;;2.00;2.00;12.20;99.90;;;;;;5082065;28;12222;-58
2022/04/11 11:38:27;;;;;;;;;2.00;2.00;12.20;99.90;;;;;;5086362;28;11505;-58
2022/04/11 11:41:01;;;;;;;;;3.25;1.00;12.20;99.90;;;;;;5082915;28;11605;-58
2022/04/11 11:43:31;;;;;;;;;2.25;2.25;12.20;99.90;;;;;;5082676;28;11463;-57
2022/04/11 11:46:07;;;;;;;;;1.50;1.50;12.30;99.90;;;;;;5070953;28;11510;-58
2022/04/11 11:48:41;;;;;;;;;2.50;2.50;12.20;99.90;;;;;;5080909;28;11466;-58
2022/04/11 11:51:11;;;;;;;;;2.00;2.00;12.30;99.90;;;;;;5078661;28;11490;-58
2022/04/11 11:53:50;;;;;;;;;1.75;1.75;12.30;99.90;;;;;;5088202;28;11495;-58
2022/04/11 11:56:22;;;;;;;;;3.00;3.00;12.30;99.90;;;;;;5075555;28;12249;-58
2022/04/11 11:58:52;;;;;;;;;3.50;3.50;12.30;99.90;;;;;;5087304;28;11468;-58
2022/04/11 12:01:29;;;;;;;;;2.00;2.00;12.30;99.90;;;;;;5082028;28;11516;-58
2022/04/11 12:06:57;;;;;;;;;1.75;1.75;12.30;99.90;;;;;;5084438;28;11475;-58
2022/04/11 12:09:40;;;;;;;;;2.75;1.75;12.30;99.90;;;;;;5084435;28;11478;-58
2022/04/11 12:12:10;;;;;;;;;1.00;1.00;12.40;99.90;;;;;;5091633;28;11497;-59
2022/04/11 12:15:00;;;;;;;;;4.75;3.00;12.40;99.90;;;;;;5089074;28;11503;-57
2022/04/11 12:17:43;;;;;;;;;2.00;2.00;12.40;99.90;;;;;;5078628;28;12331;-58
2022/04/11 12:20:19;;;;;;;;;2.00;2.00;12.40;99.90;;;;;;5080736;28;11481;-59
2022/04/11 12:23:10;;;;;;;;;2.00;2.00;12.40;99.90;;;;;;5080210;28;11505;-58
2022/04/11 12:25:50;;;;;;;;;1.00;1.00;12.40;99.90;;;;;;5085967;28;11415;-59
2022/04/11 12:28:29;;;;;;;;;5.00;3.00;12.40;99.90;;;;;;5079725;28;11523;-59
2022/04/11 12:31:17;;;;;;;;;3.00;3.00;12.40;99.90;;;;;;5079773;28;11664;-58
2022/04/11 12:33:49;;;;;;;;;2.00;2.00;12.40;99.90;;;;;;5080761;28;11617;-59
2022/04/11 12:36:28;;;;;;;;;2.50;2.50;12.50;99.90;;;;;;5089031;28;11648;-59
2022/04/11 12:39:03;;;;;;;;;2.00;2.00;12.50;99.90;;;;;;5083073;28;11525;-58
2022/04/11 12:41:48;;;;;;;;;3.00;1.75;12.50;99.90;;;;;;5081412;28;12247;-58
2022/04/11 12:44:32;;;;;;;;;3.75;2.00;12.50;99.90;;;;;;5080791;28;11474;-58
2022/04/11 12:47:02;;;;;;;;;4.00;1.25;12.50;99.90;;;;;;5076672;28;11470;-58
2022/04/11 12:49:47;;;;;;;;;1.00;1.00;12.50;99.90;;;;;;5081615;28;11643;-58
2022/04/11 12:52:20;;;;;;;;;2.00;2.00;12.50;99.90;;;;;;5082860;28;12192;-58
2022/04/11 12:55:02;;;;;;;;;1.25;1.25;12.50;99.90;;;;;;5083163;28;11538;-58
2022/04/11 12:57:35;;;;;;;;;2.00;2.00;12.50;99.90;;;;;;5090377;28;11420;-59
2022/04/11 13:00:23;;;;;;;;;4.00;2.00;12.60;99.90;;;;;;5085690;28;11662;-58
2022/04/11 13:02:55;;;;;;;;;3.50;1.50;12.60;99.90;;;;;;5077270;28;12293;-58
2022/04/11 13:05:27;;;;;;;;;2.25;2.25;12.60;99.90;;;;;;5093131;28;11410;-58
2022/04/11 13:08:03;;;;;;;;;1.75;1.75;12.60;99.90;;;;;;5080500;28;11608;-59
2022/04/11 13:10:34;;;;;;;;;1.75;1.75;12.60;99.90;;;;;;5087114;28;11515;-58
2022/04/11 13:13:04;;;;;;;;;1.75;1.75;12.60;99.90;;;;;;5091691;28;11483;-59
2022/04/11 13:18:23;;;;;;;;;3.50;3.50;12.60;99.90;;;;;;5085242;28;11491;-58
2022/04/11 13:18:26;;;;;;;;;2.00;2.00;12.60;99.90;;;;;;5079688;28;11474;-58
2022/04/11 13:20:56;;;;;;;;;3.25;2.00;12.60;99.90;;;;;;5085900;28;12217;-59